createdAt,value
2022-11-08T00:02:23.251Z,90.39
2022-11-08T00:04:52.639Z,90.15
2022-11-08T00:07:38.105Z,90.34
2022-11-08T00:10:23.611Z,90.22
2022-11-08T00:13:08.807Z,90.20
2022-11-08T00:15:38.705Z,90.13
2022-11-08T00:18:07.231Z,90.16
2022-11-08T00:20:34.945Z,90.00
2022-11-08T00:23:01.969Z,90.03
2022-11-08T00:25:28.696Z,89.57
2022-11-08T00:27:55.291Z,89.53
2022-11-08T00:30:21.888Z,89.76
2022-11-08T00:32:48.486Z,90.20
2022-11-08T00:35:15.330Z,89.55
2022-11-08T00:37:42.019Z,90.05
2022-11-08T00:40:09.059Z,89.26
2022-11-08T00:42:35.608Z,89.60
2022-11-08T00:45:02.255Z,89.67
2022-11-08T00:47:28.831Z,90.04
2022-11-08T00:49:57.996Z,89.87
2022-11-08T00:52:24.999Z,89.43
2022-11-08T00:54:56.336Z,89.92
2022-11-08T00:57:40.854Z,89.29
2022-11-08T01:00:13.181Z,89.80
2022-11-08T01:02:39.820Z,89.43
2022-11-08T01:05:06.688Z,88.98
2022-11-08T01:07:34.127Z,89.36
2022-11-08T01:10:00.756Z,89.33
2022-11-08T01:12:27.368Z,89.62
2022-11-08T01:14:54.423Z,89.51
2022-11-08T01:17:21.175Z,89.34
2022-11-08T01:19:47.976Z,89.50
2022-11-08T01:22:17.448Z,89.55
2022-11-08T01:24:44.032Z,89.38
2022-11-08T01:27:10.801Z,89.46
2022-11-08T01:29:37.395Z,89.40
2022-11-08T01:32:04.067Z,89.33
2022-11-08T01:34:33.502Z,89.00
2022-11-08T01:37:00.040Z,89.06
2022-11-08T01:39:27.447Z,89.30
2022-11-08T01:41:57.144Z,89.33
2022-11-08T01:44:28.113Z,89.03
2022-11-08T01:46:54.708Z,89.11
2022-11-08T01:49:32.355Z,88.99
2022-11-08T01:52:05.125Z,88.81
2022-11-08T01:54:35.989Z,89.25
2022-11-08T01:57:07.140Z,88.86
2022-11-08T01:59:41.686Z,89.11
2022-11-08T02:02:16.183Z,88.84
2022-11-08T02:04:43.889Z,89.35
2022-11-08T02:07:13.306Z,88.98
2022-11-08T02:09:43.135Z,88.74
2022-11-08T02:12:11.009Z,88.98
2022-11-08T02:14:38.115Z,88.81
2022-11-08T02:17:06.969Z,88.58
2022-11-08T02:19:43.935Z,89.01
2022-11-08T02:22:22.764Z,88.71
2022-11-08T02:24:49.404Z,88.37
2022-11-08T02:27:19.048Z,88.53
2022-11-08T02:29:45.631Z,88.60
2022-11-08T02:32:12.725Z,88.69
2022-11-08T02:34:44.111Z,88.67
2022-11-08T02:37:13.298Z,88.79
2022-11-08T02:39:39.906Z,88.34
2022-11-08T02:42:06.540Z,88.39
2022-11-08T02:44:33.244Z,88.34
2022-11-08T02:46:59.857Z,88.21
2022-11-08T02:49:26.450Z,88.24
2022-11-08T02:51:54.104Z,88.03
2022-11-08T02:54:21.029Z,87.99
2022-11-08T02:56:50.805Z,88.45
2022-11-08T02:59:20.273Z,87.87
2022-11-08T03:01:46.906Z,87.97
2022-11-08T03:04:13.724Z,87.83
2022-11-08T03:06:40.325Z,88.29
2022-11-08T03:09:06.956Z,88.17
2022-11-08T03:11:33.593Z,88.00
2022-11-08T03:14:00.209Z,87.65
2022-11-08T03:16:26.794Z,87.64
2022-11-08T03:18:53.868Z,87.92
2022-11-08T03:21:23.577Z,87.68
2022-11-08T03:23:50.222Z,87.82
2022-11-08T03:26:16.826Z,87.59
2022-11-08T03:28:43.468Z,87.57
2022-11-08T03:31:10.260Z,87.20
2022-11-08T03:33:37.004Z,86.99
2022-11-08T03:36:03.880Z,87.50
2022-11-08T03:38:32.828Z,87.35
2022-11-08T03:40:59.422Z,87.42
2022-11-08T03:43:26.580Z,87.18
2022-11-08T03:45:53.396Z,87.45
2022-11-08T03:48:20.756Z,87.07
2022-11-08T03:50:47.509Z,86.96
2022-11-08T03:53:14.044Z,86.97
2022-11-08T03:55:44.321Z,86.98
2022-11-08T03:58:12.112Z,86.92
2022-11-08T04:00:41.754Z,87.08
2022-11-08T04:03:11.762Z,87.62
2022-11-08T04:05:38.333Z,87.03
2022-11-08T04:08:05.441Z,86.93
2022-11-08T04:10:32.418Z,86.93
2022-11-08T04:13:19.072Z,87.55
2022-11-08T04:15:46.691Z,87.20
2022-11-08T04:18:31.626Z,87.40
2022-11-08T04:21:19.286Z,87.20
2022-11-08T04:23:47.022Z,87.50
2022-11-08T04:26:13.627Z,87.56
2022-11-08T04:28:41.669Z,87.43
2022-11-08T04:31:16.665Z,87.57
2022-11-08T04:33:43.900Z,87.74
2022-11-08T04:36:13.529Z,87.36
2022-11-08T04:38:42.467Z,87.93
2022-11-08T04:41:14.528Z,87.85
2022-11-08T04:43:41.573Z,87.45
2022-11-08T04:46:10.429Z,87.50
2022-11-08T04:48:37.119Z,87.54
2022-11-08T04:51:13.030Z,87.87
2022-11-08T04:53:39.853Z,88.01
2022-11-08T04:56:27.659Z,87.66
2022-11-08T04:58:56.560Z,87.85
2022-11-08T05:01:28.648Z,87.84
2022-11-08T05:03:55.911Z,87.90
2022-11-08T05:06:27.967Z,88.04
2022-11-08T05:08:56.001Z,88.18
2022-11-08T05:11:26.068Z,87.94
2022-11-08T05:13:53.013Z,88.46
2022-11-08T05:16:32.140Z,88.33
2022-11-08T05:18:59.279Z,88.43
2022-11-08T05:21:45.665Z,88.45
2022-11-08T05:24:15.558Z,88.45
2022-11-08T05:26:44.383Z,88.60
2022-11-08T05:29:12.712Z,88.53
2022-11-08T05:31:39.784Z,88.91
2022-11-08T05:34:07.706Z,88.71
2022-11-08T05:36:34.495Z,88.51
2022-11-08T05:39:01.071Z,88.81
2022-11-08T05:41:27.653Z,89.03
2022-11-08T05:43:55.290Z,88.74
2022-11-08T05:46:23.660Z,88.83
2022-11-08T05:48:51.093Z,89.04
2022-11-08T05:51:19.026Z,89.24
2022-11-08T05:53:47.271Z,89.15
2022-11-08T05:56:14.347Z,89.13
2022-11-08T05:58:41.049Z,89.06
2022-11-08T06:01:13.128Z,88.86
2022-11-08T06:03:39.943Z,89.25
2022-11-08T06:06:12.346Z,89.75
2022-11-08T06:08:39.957Z,89.69
2022-11-08T06:11:12.296Z,89.81
2022-11-08T06:13:39.444Z,89.72
2022-11-08T06:16:09.617Z,89.65
2022-11-08T06:18:36.960Z,89.88
2022-11-08T06:21:05.517Z,89.84
2022-11-08T06:23:32.792Z,89.61
2022-11-08T06:26:00.100Z,89.80
2022-11-08T06:28:27.333Z,89.79
2022-11-08T06:30:54.165Z,90.21
2022-11-08T06:33:21.836Z,90.07
2022-11-08T06:35:48.621Z,90.11
2022-11-08T06:38:15.220Z,90.13
2022-11-08T06:40:41.878Z,90.10
2022-11-08T06:43:14.932Z,90.22
2022-11-08T06:45:44.986Z,90.06
2022-11-08T06:48:11.556Z,89.78
2022-11-08T06:50:38.188Z,89.82
2022-11-08T06:53:06.981Z,90.61
2022-11-08T06:55:35.072Z,90.45
2022-11-08T06:58:02.041Z,90.06
2022-11-08T07:00:28.937Z,90.33
2022-11-08T07:02:57.322Z,90.33
2022-11-08T07:05:24.646Z,90.45
2022-11-08T07:07:54.149Z,90.53
2022-11-08T07:10:22.682Z,90.48
2022-11-08T07:12:56.209Z,90.11
2022-11-08T07:15:23.013Z,90.70
2022-11-08T07:17:49.677Z,90.87
2022-11-08T07:20:16.386Z,90.67
2022-11-08T07:22:42.966Z,90.61
2022-11-08T07:25:09.729Z,90.56
2022-11-08T07:27:36.304Z,90.24
2022-11-08T07:30:03.392Z,90.42
2022-11-08T07:32:29.968Z,90.12
2022-11-08T07:34:56.512Z,90.52
2022-11-08T07:37:23.049Z,90.21
2022-11-08T07:39:52.277Z,90.80
2022-11-08T07:42:18.855Z,90.95
2022-11-08T07:44:45.413Z,90.41
2022-11-08T07:47:12.028Z,90.38
2022-11-08T07:49:38.591Z,90.20
2022-11-08T07:52:05.341Z,90.39
2022-11-08T07:54:31.971Z,90.19
2022-11-08T07:56:58.530Z,90.82
2022-11-08T07:59:25.135Z,90.44
2022-11-08T08:01:51.808Z,90.43
2022-11-08T08:04:18.466Z,90.39
2022-11-08T08:06:45.020Z,90.80
2022-11-08T08:09:11.614Z,90.48
2022-11-08T08:11:41.367Z,90.70
2022-11-08T08:14:07.958Z,90.54
2022-11-08T08:16:36.854Z,90.79
2022-11-08T08:19:04.537Z,90.69
2022-11-08T08:21:31.145Z,90.91
2022-11-08T08:23:57.748Z,90.65
2022-11-08T08:26:24.386Z,90.47
2022-11-08T08:28:50.987Z,91.02
2022-11-08T08:31:17.775Z,90.71
2022-11-08T08:33:44.425Z,90.64
2022-11-08T08:36:11.190Z,90.94
2022-11-08T08:38:44.141Z,90.99
2022-11-08T08:41:11.289Z,91.04
2022-11-08T08:43:37.965Z,90.79
2022-11-08T08:46:06.501Z,90.76
2022-11-08T08:48:33.725Z,91.02
2022-11-08T08:51:00.303Z,90.67
2022-11-08T08:53:27.243Z,90.76
2022-11-08T08:55:53.941Z,90.55
2022-11-08T08:58:21.268Z,90.92
2022-11-08T09:03:36.134Z,91.17
2022-11-08T09:06:02.976Z,90.74
2022-11-08T09:08:30.153Z,90.60
2022-11-08T09:10:58.817Z,90.69
2022-11-08T09:13:30.954Z,90.99
2022-11-08T09:15:59.085Z,91.29
2022-11-08T09:18:25.727Z,91.02
2022-11-08T09:20:55.518Z,91.38
2022-11-08T09:23:22.083Z,90.69
2022-11-08T09:25:48.835Z,90.85
2022-11-08T09:28:18.320Z,91.09
2022-11-08T09:30:44.958Z,90.92
2022-11-08T09:33:11.545Z,90.75
2022-11-08T09:35:38.175Z,90.91
2022-11-08T09:38:04.803Z,91.08
2022-11-08T09:40:42.488Z,91.26
2022-11-08T09:43:36.413Z,91.08
2022-11-08T09:46:02.996Z,90.89
2022-11-08T09:48:34.916Z,90.58
2022-11-08T09:51:10.285Z,90.83
2022-11-08T09:53:51.978Z,90.61
2022-11-08T09:56:21.743Z,90.15
2022-11-08T09:59:25.647Z,90.53
2022-11-08T10:01:52.385Z,89.98
2022-11-08T10:04:26.103Z,90.27
2022-11-08T10:06:58.198Z,90.37
2022-11-08T10:09:53.547Z,89.91
2022-11-08T10:12:54.781Z,90.20
2022-11-08T10:15:42.962Z,90.11
2022-11-08T10:18:40.031Z,90.01
2022-11-08T10:21:44.250Z,90.61
2022-11-08T10:24:35.212Z,90.58
2022-11-08T10:27:03.458Z,90.36
2022-11-08T10:29:42.051Z,89.81
2022-11-08T10:32:08.597Z,90.05
2022-11-08T10:34:46.668Z,89.95
2022-11-08T10:37:15.590Z,90.28
2022-11-08T10:40:00.078Z,90.17
2022-11-08T10:42:49.546Z,90.02
2022-11-08T10:45:16.298Z,89.86
2022-11-08T10:47:46.273Z,89.36
2022-11-08T10:50:20.020Z,89.78
2022-11-08T10:53:01.703Z,89.83
2022-11-08T10:55:38.657Z,89.18
2022-11-08T10:58:30.900Z,88.79
2022-11-08T11:01:27.138Z,89.08
2022-11-08T11:03:54.098Z,88.87
2022-11-08T11:06:29.912Z,89.06
2022-11-08T11:09:02.809Z,88.99
2022-11-08T11:11:32.070Z,88.09
2022-11-08T11:14:14.609Z,88.45
2022-11-08T11:16:54.150Z,88.40
2022-11-08T11:19:21.191Z,88.87
2022-11-08T11:21:56.019Z,88.32
2022-11-08T11:24:23.575Z,88.77
2022-11-08T11:27:02.559Z,88.14
2022-11-08T11:29:35.282Z,88.42
2022-11-08T11:32:20.583Z,88.30
2022-11-08T11:34:54.219Z,88.05
2022-11-08T11:37:55.571Z,88.28
2022-11-08T11:40:33.960Z,88.49
2022-11-08T11:43:25.484Z,88.68
2022-11-08T11:46:10.534Z,87.93
2022-11-08T11:48:44.721Z,87.95
2022-11-08T11:51:11.764Z,88.23
2022-11-08T11:53:40.255Z,88.14
2022-11-08T11:56:41.503Z,88.38
2022-11-08T11:59:33.590Z,87.96
2022-11-08T12:02:25.144Z,88.00
2022-11-08T12:05:42.163Z,88.00
2022-11-08T12:08:20.646Z,87.90
2022-11-08T12:10:59.318Z,87.98
2022-11-08T12:13:34.928Z,88.19
2022-11-08T12:16:26.166Z,87.99
2022-11-08T12:19:21.048Z,87.87
2022-11-08T12:22:14.248Z,87.50
2022-11-08T12:25:31.639Z,87.36
2022-11-08T12:28:17.193Z,87.47
2022-11-08T12:30:51.786Z,87.74
2022-11-08T12:33:40.067Z,87.80
2022-11-08T12:36:12.990Z,87.41
2022-11-08T12:38:48.251Z,87.62
2022-11-08T12:41:20.837Z,87.59
2022-11-08T12:44:10.118Z,87.42
2022-11-08T12:46:58.516Z,87.09
2022-11-08T12:49:37.053Z,86.87
2022-11-08T12:52:22.021Z,86.87
2022-11-08T12:54:53.584Z,86.96
2022-11-08T12:57:27.578Z,86.69
2022-11-08T13:00:18.633Z,86.74
2022-11-08T13:02:57.398Z,86.55
2022-11-08T13:05:33.428Z,86.89
2022-11-08T13:08:20.388Z,86.45
2022-11-08T13:10:53.993Z,86.13
2022-11-08T13:13:31.498Z,86.37
2022-11-08T13:16:08.718Z,86.13
2022-11-08T13:18:42.547Z,85.63
2022-11-08T13:21:30.142Z,85.74
2022-11-08T13:24:10.018Z,86.44
2022-11-08T13:26:43.192Z,86.24
2022-11-08T13:29:17.139Z,86.05
2022-11-08T13:32:03.047Z,86.24
2022-11-08T13:34:56.472Z,85.94
2022-11-08T13:38:07.678Z,86.85
2022-11-08T13:41:03.613Z,86.13
2022-11-08T13:43:32.882Z,86.47
2022-11-08T13:46:27.724Z,85.97
2022-11-08T13:49:05.386Z,86.29
2022-11-08T13:51:37.306Z,86.46
2022-11-08T13:54:22.374Z,86.25
2022-11-08T13:56:53.776Z,86.49
2022-11-08T13:59:29.378Z,86.36
2022-11-08T14:02:02.886Z,86.79
2022-11-08T14:05:07.996Z,87.00
2022-11-08T14:07:44.413Z,86.20
2022-11-08T14:10:25.697Z,86.77
2022-11-08T14:13:16.396Z,86.63
2022-11-08T14:15:51.891Z,86.99
2022-11-08T14:18:27.149Z,86.86
2022-11-08T14:20:54.917Z,87.04
2022-11-08T14:23:34.286Z,86.91
2022-11-08T14:26:11.061Z,87.19
2022-11-08T14:28:43.163Z,86.98
2022-11-08T14:31:23.935Z,86.93
2022-11-08T14:33:50.577Z,87.13
2022-11-08T14:36:19.814Z,87.37
2022-11-08T14:38:50.333Z,86.72
2022-11-08T14:41:25.648Z,86.90
2022-11-08T14:43:54.340Z,87.09
2022-11-08T14:46:29.011Z,87.31
2022-11-08T14:48:57.256Z,87.31
2022-11-08T14:51:25.614Z,87.02
2022-11-08T14:53:56.609Z,87.38
2022-11-08T14:56:26.138Z,87.03
2022-11-08T14:58:54.819Z,86.78
2022-11-08T15:01:24.726Z,87.71
2022-11-08T15:04:05.196Z,86.99
2022-11-08T15:06:35.388Z,87.24
2022-11-08T15:09:04.892Z,87.56
2022-11-08T15:11:42.911Z,87.53
2022-11-08T15:14:19.426Z,87.72
2022-11-08T15:16:52.712Z,87.02
2022-11-08T15:19:40.062Z,87.34
2022-11-08T15:22:26.459Z,87.61
2022-11-08T15:25:08.287Z,87.01
2022-11-08T15:27:34.888Z,87.11
2022-11-08T15:30:06.888Z,87.51
2022-11-08T15:32:37.538Z,87.12
2022-11-08T15:35:06.563Z,87.29
2022-11-08T15:37:37.809Z,87.42
2022-11-08T15:40:07.443Z,87.49
2022-11-08T15:42:35.271Z,87.86
2022-11-08T15:45:12.417Z,87.27
2022-11-08T15:47:42.006Z,87.88
2022-11-08T15:50:25.664Z,87.42
2022-11-08T15:52:55.153Z,87.67
2022-11-08T15:55:30.164Z,87.44
2022-11-08T15:57:58.978Z,88.07
2022-11-08T16:00:28.568Z,87.56
2022-11-08T16:02:55.802Z,87.83
2022-11-08T16:05:25.535Z,88.30
2022-11-08T16:07:53.216Z,88.14
2022-11-08T16:10:28.728Z,88.05
2022-11-08T16:12:56.479Z,87.94
2022-11-08T16:15:24.808Z,87.78
2022-11-08T16:17:51.931Z,87.70
2022-11-08T16:20:21.308Z,88.06
2022-11-08T16:22:47.943Z,88.49
2022-11-08T16:25:14.611Z,88.12
2022-11-08T16:27:41.245Z,88.12
2022-11-08T16:30:16.037Z,88.17
2022-11-08T16:32:42.972Z,88.39
2022-11-08T16:35:13.072Z,88.63
2022-11-08T16:37:41.031Z,88.24
2022-11-08T16:40:14.009Z,88.33
2022-11-08T16:42:40.588Z,88.73
2022-11-08T16:45:07.828Z,88.52
2022-11-08T16:47:35.128Z,88.01
2022-11-08T16:50:01.819Z,88.88
2022-11-08T16:52:28.430Z,88.35
2022-11-08T16:54:54.960Z,88.71
2022-11-08T16:57:34.192Z,88.84
2022-11-08T17:00:01.586Z,88.41
2022-11-08T17:02:34.039Z,88.51
2022-11-08T17:05:00.592Z,89.00
2022-11-08T17:07:28.199Z,88.26
2022-11-08T17:09:54.815Z,88.34
2022-11-08T17:12:21.715Z,88.95
2022-11-08T17:14:48.334Z,88.65
2022-11-08T17:17:15.470Z,88.80
2022-11-08T17:19:42.204Z,89.11
2022-11-08T17:22:08.800Z,89.26
2022-11-08T17:24:35.426Z,88.74
2022-11-08T17:27:02.412Z,88.94
2022-11-08T17:29:29.088Z,88.80
2022-11-08T17:31:55.690Z,88.70
2022-11-08T17:34:22.391Z,88.92
2022-11-08T17:36:52.739Z,88.72
2022-11-08T17:39:19.371Z,89.41
2022-11-08T17:41:45.952Z,89.20
2022-11-08T17:44:12.717Z,88.86
2022-11-08T17:46:39.315Z,88.88
2022-11-08T17:49:05.880Z,89.10
2022-11-08T17:51:32.523Z,89.16
2022-11-08T17:53:59.294Z,89.07
2022-11-08T17:56:25.921Z,89.74
2022-11-08T17:58:52.656Z,89.07
2022-11-08T18:01:19.637Z,89.40
2022-11-08T18:03:46.385Z,89.63
2022-11-08T18:06:14.442Z,89.75
2022-11-08T18:08:41.947Z,89.61
2022-11-08T18:11:08.872Z,89.33
2022-11-08T18:13:36.000Z,89.20
2022-11-08T18:16:11.757Z,89.08
2022-11-08T18:18:39.259Z,89.55
2022-11-08T18:21:07.685Z,89.47
2022-11-08T18:23:34.333Z,89.38
2022-11-08T18:26:01.531Z,89.76
2022-11-08T18:28:28.222Z,89.63
2022-11-08T18:30:54.836Z,90.13
2022-11-08T18:33:21.993Z,89.87
2022-11-08T18:35:48.816Z,89.59
2022-11-08T18:38:15.383Z,90.15
2022-11-08T18:40:45.676Z,89.49
2022-11-08T18:43:12.248Z,90.16
2022-11-08T18:45:39.067Z,89.79
2022-11-08T18:48:06.404Z,90.10
2022-11-08T18:50:33.111Z,90.26
2022-11-08T18:53:03.766Z,90.10
2022-11-08T18:55:31.826Z,90.43
2022-11-08T18:58:01.293Z,90.35
2022-11-08T19:00:27.905Z,90.28
2022-11-08T19:02:54.957Z,90.48
2022-11-08T19:05:21.654Z,90.28
2022-11-08T19:07:48.214Z,90.40
2022-11-08T19:10:14.840Z,90.48
2022-11-08T19:12:41.526Z,90.73
2022-11-08T19:15:08.851Z,90.95
2022-11-08T19:17:36.473Z,90.96
2022-11-08T19:20:04.038Z,90.74
2022-11-08T19:22:30.880Z,90.97
2022-11-08T19:24:57.456Z,90.46
2022-11-08T19:27:24.174Z,91.18
2022-11-08T19:29:50.801Z,90.86
2022-11-08T19:32:17.605Z,90.55
2022-11-08T19:34:46.991Z,90.82
2022-11-08T19:37:13.599Z,91.01
2022-11-08T19:39:40.228Z,90.63
2022-11-08T19:42:06.891Z,90.67
2022-11-08T19:44:33.617Z,90.87
2022-11-08T19:47:00.280Z,91.36
2022-11-08T19:49:28.780Z,90.95
2022-11-08T19:51:55.435Z,91.25
2022-11-08T19:54:22.075Z,90.98
2022-11-08T19:57:05.476Z,91.05
2022-11-08T19:59:32.904Z,91.05
2022-11-08T20:01:59.956Z,91.09
2022-11-08T20:04:26.715Z,91.26
2022-11-08T20:06:53.476Z,91.40
2022-11-08T20:09:20.137Z,91.06
2022-11-08T20:11:46.733Z,91.20
2022-11-08T20:14:14.005Z,91.08
2022-11-08T20:16:42.878Z,90.94
2022-11-08T20:19:12.671Z,91.02
2022-11-08T20:21:42.130Z,91.00
2022-11-08T20:24:10.403Z,91.13
2022-11-08T20:26:38.567Z,91.51
2022-11-08T20:29:07.205Z,91.67
2022-11-08T20:31:34.140Z,91.47
2022-11-08T20:34:01.694Z,91.66
2022-11-08T20:36:33.158Z,91.66
2022-11-08T20:39:06.482Z,91.22
2022-11-08T20:41:35.523Z,91.45
2022-11-08T20:44:02.595Z,91.54
2022-11-08T20:46:29.671Z,91.84
2022-11-08T20:49:00.257Z,92.01
2022-11-08T20:51:28.624Z,91.39
2022-11-08T20:53:56.156Z,91.53
2022-11-08T20:56:23.779Z,91.47
2022-11-08T20:58:51.837Z,91.80
2022-11-08T21:01:21.287Z,91.80
2022-11-08T21:03:48.379Z,91.81
2022-11-08T21:06:17.716Z,91.84
2022-11-08T21:09:08.249Z,91.82
2022-11-08T21:11:34.651Z,91.96
2022-11-08T21:14:03.118Z,92.04
2022-11-08T21:16:33.341Z,91.74
2022-11-08T21:19:09.306Z,92.01
2022-11-08T21:21:35.960Z,91.93
2022-11-08T21:24:02.926Z,91.82
2022-11-08T21:26:29.641Z,92.11
2022-11-08T21:28:56.293Z,91.75
2022-11-08T21:31:23.060Z,91.90
2022-11-08T21:33:49.854Z,91.96
2022-11-08T21:36:17.802Z,91.66
2022-11-08T21:38:44.733Z,92.15
2022-11-08T21:41:11.788Z,92.07
2022-11-08T21:43:43.349Z,92.05
2022-11-08T21:46:20.556Z,91.95
2022-11-08T21:48:52.448Z,91.69
2022-11-08T21:51:19.116Z,92.13
2022-11-08T21:53:54.083Z,92.21
2022-11-08T21:56:23.629Z,91.98
2022-11-08T21:58:50.317Z,91.91
2022-11-08T22:01:17.538Z,91.97
2022-11-08T22:03:44.436Z,92.15
2022-11-08T22:06:11.056Z,92.38
2022-11-08T22:08:37.714Z,92.02
2022-11-08T22:11:04.502Z,92.29
2022-11-08T22:13:31.168Z,92.29
2022-11-08T22:15:57.861Z,92.12
2022-11-08T22:18:42.966Z,92.23
2022-11-08T22:21:31.445Z,92.60
2022-11-08T22:23:58.097Z,92.30
2022-11-08T22:26:24.714Z,91.92
2022-11-08T22:28:51.366Z,92.11
2022-11-08T22:31:17.979Z,91.95
2022-11-08T22:33:44.592Z,92.19
2022-11-08T22:36:11.985Z,91.95
2022-11-08T22:38:38.918Z,92.32
2022-11-08T22:41:05.905Z,92.30
2022-11-08T22:43:36.416Z,92.05
2022-11-08T22:46:03.761Z,91.97
2022-11-08T22:48:30.482Z,92.59
2022-11-08T22:50:57.562Z,92.46
2022-11-08T22:53:27.572Z,91.89
2022-11-08T22:55:54.332Z,92.33
2022-11-08T22:58:21.299Z,92.34
2022-11-08T23:00:50.053Z,92.47
2022-11-08T23:03:16.983Z,92.49
2022-11-08T23:05:52.025Z,92.26
2022-11-08T23:08:20.041Z,92.06
2022-11-08T23:11:09.758Z,92.30
2022-11-08T23:13:57.959Z,92.21
2022-11-08T23:16:37.901Z,92.56
2022-11-08T23:19:29.015Z,92.74
2022-11-08T23:22:14.703Z,92.36
2022-11-08T23:24:44.993Z,92.52
2022-11-08T23:27:32.767Z,92.51
2022-11-08T23:30:17.952Z,92.60
2022-11-08T23:32:47.440Z,92.58
2022-11-08T23:35:15.198Z,92.59
2022-11-08T23:37:41.875Z,92.43
2022-11-08T23:40:29.408Z,92.32
2022-11-08T23:43:22.156Z,92.47
2022-11-08T23:45:49.340Z,92.68
2022-11-08T23:48:15.995Z,92.31
2022-11-08T23:50:55.772Z,92.75
2022-11-08T23:53:25.251Z,92.55
2022-11-08T23:55:55.739Z,92.59
2022-11-08T23:58:23.087Z,92.76
